createdAt,value
2018-12-04T00:00:16.138Z,88.82
2018-12-04T00:02:44.171Z,89.06
2018-12-04T00:05:12.216Z,89.39
2018-12-04T00:07:40.218Z,89.39
2018-12-04T00:10:08.456Z,89.89
2018-12-04T00:12:36.438Z,89.69
2018-12-04T00:15:04.455Z,88.91
2018-12-04T00:17:32.425Z,89.29
2018-12-04T00:20:00.387Z,88.88
2018-12-04T00:22:28.388Z,88.80
2018-12-04T00:24:56.325Z,88.79
2018-12-04T00:27:24.303Z,89.20
2018-12-04T00:29:52.266Z,88.87
2018-12-04T00:32:20.236Z,89.20
2018-12-04T00:34:48.207Z,88.21
2018-12-04T00:37:16.180Z,88.32
2018-12-04T00:39:44.150Z,88.36
2018-12-04T00:42:12.163Z,88.41
2018-12-04T00:44:40.104Z,88.52
2018-12-04T00:47:08.073Z,88.25
2018-12-04T00:49:36.054Z,87.62
2018-12-04T00:52:04.062Z,87.98
2018-12-04T00:54:32.007Z,87.82
2018-12-04T00:56:59.968Z,86.90
2018-12-04T00:59:27.945Z,87.12
2018-12-04T01:01:55.901Z,87.09
2018-12-04T01:04:23.851Z,87.03
2018-12-04T01:06:51.854Z,87.43
2018-12-04T01:09:19.790Z,87.21
2018-12-04T01:11:47.778Z,87.56
2018-12-04T01:14:15.770Z,87.33
2018-12-04T01:16:43.768Z,87.62
2018-12-04T01:19:11.770Z,87.74
2018-12-04T01:21:39.794Z,87.95
2018-12-04T01:24:07.744Z,88.56
2018-12-04T01:26:35.715Z,88.36
2018-12-04T01:29:03.650Z,87.36
2018-12-04T01:31:31.697Z,87.72
2018-12-04T01:33:59.679Z,87.25
2018-12-04T01:36:27.710Z,87.81
2018-12-04T01:38:55.649Z,88.24
2018-12-04T01:41:23.644Z,88.37
2018-12-04T01:43:51.580Z,87.01
2018-12-04T01:46:19.583Z,87.18
2018-12-04T01:48:47.571Z,87.49
2018-12-04T01:51:15.515Z,88.10
2018-12-04T01:53:43.506Z,87.96
2018-12-04T01:56:11.461Z,88.23
2018-12-04T01:58:39.465Z,88.30
2018-12-04T02:01:07.822Z,87.93
2018-12-04T02:03:35.842Z,88.60
2018-12-04T02:06:03.815Z,88.12
2018-12-04T02:08:31.824Z,88.68
2018-12-04T02:10:59.819Z,88.14
2018-12-04T02:13:28.507Z,88.62
2018-12-04T02:15:56.439Z,88.63
2018-12-04T02:18:24.412Z,88.98
2018-12-04T02:20:53.174Z,89.01
2018-12-04T02:23:21.224Z,88.80
2018-12-04T02:25:49.195Z,88.62
2018-12-04T02:28:17.248Z,88.55
2018-12-04T02:30:45.223Z,88.49
2018-12-04T02:33:13.206Z,88.52
2018-12-04T02:35:41.188Z,88.53
2018-12-04T02:38:09.149Z,88.23
2018-12-04T02:40:37.156Z,87.78
2018-12-04T02:43:05.106Z,87.72
2018-12-04T02:45:33.380Z,87.64
2018-12-04T02:48:01.417Z,87.03
2018-12-04T02:50:29.370Z,86.83
2018-12-04T02:52:57.311Z,86.42
2018-12-04T02:55:25.283Z,86.55
2018-12-04T02:57:53.237Z,87.01
2018-12-04T03:00:21.193Z,86.77
2018-12-04T03:02:49.159Z,86.89
2018-12-04T03:05:17.134Z,86.92
2018-12-04T03:07:45.154Z,86.94
2018-12-04T03:10:13.182Z,86.55
2018-12-04T03:12:41.106Z,86.72
2018-12-04T03:15:09.831Z,86.74
2018-12-04T03:17:37.811Z,86.53
2018-12-04T03:20:05.843Z,86.52
2018-12-04T03:22:33.811Z,86.56
2018-12-04T03:25:01.897Z,86.57
2018-12-04T03:27:29.868Z,87.07
2018-12-04T03:29:57.912Z,87.22
2018-12-04T03:32:26.199Z,86.67
2018-12-04T03:34:54.234Z,86.47
2018-12-04T03:37:22.181Z,86.43
2018-12-04T03:39:50.982Z,86.11
2018-12-04T03:42:19.653Z,86.01
2018-12-04T03:44:47.671Z,85.58
2018-12-04T03:47:15.655Z,85.68
2018-12-04T03:49:43.713Z,85.75
2018-12-04T03:52:11.711Z,85.60
2018-12-04T03:54:39.737Z,85.60
2018-12-04T03:57:07.880Z,85.82
2018-12-04T03:59:35.902Z,85.99
2018-12-04T04:02:04.001Z,85.49
2018-12-04T04:04:32.805Z,85.70
2018-12-04T04:07:00.964Z,85.73
2018-12-04T04:09:28.990Z,85.75
2018-12-04T04:11:56.947Z,86.27
2018-12-04T04:14:24.932Z,85.66
2018-12-04T04:16:53.091Z,85.78
2018-12-04T04:19:21.058Z,85.68
2018-12-04T04:21:49.010Z,85.75
2018-12-04T04:24:16.984Z,85.98
2018-12-04T04:26:44.917Z,86.01
2018-12-04T04:29:12.939Z,86.13
2018-12-04T04:31:40.881Z,85.87
2018-12-04T04:34:08.856Z,85.56
2018-12-04T04:36:37.391Z,86.15
2018-12-04T04:39:06.017Z,85.56
2018-12-04T04:41:33.991Z,85.11
2018-12-04T04:44:02.052Z,84.84
2018-12-04T04:46:30.086Z,86.37
2018-12-04T04:48:58.269Z,84.93
2018-12-04T04:51:27.033Z,83.31
2018-12-04T04:53:54.998Z,83.55
2018-12-04T04:56:24.043Z,83.91
2018-12-04T04:58:52.060Z,83.70
2018-12-04T05:01:20.135Z,83.82
2018-12-04T05:03:50.967Z,83.76
2018-12-04T05:06:19.019Z,83.69
2018-12-04T05:08:47.014Z,84.15
2018-12-04T05:11:14.926Z,84.60
2018-12-04T05:13:42.961Z,84.93
2018-12-04T05:16:10.879Z,84.18
2018-12-04T05:18:38.950Z,84.70
2018-12-04T05:21:06.963Z,83.98
2018-12-04T05:23:34.927Z,83.81
2018-12-04T05:26:02.976Z,83.52
2018-12-04T05:28:31.507Z,83.36
2018-12-04T05:30:59.462Z,83.52
2018-12-04T05:33:29.004Z,82.86
2018-12-04T05:35:58.346Z,82.95
2018-12-04T05:38:26.292Z,82.52
2018-12-04T05:40:54.282Z,82.45
2018-12-04T05:43:23.062Z,82.24
2018-12-04T05:45:51.091Z,82.34
2018-12-04T05:48:19.088Z,82.47
2018-12-04T05:50:50.631Z,82.16
2018-12-04T05:53:30.090Z,82.09
2018-12-04T05:55:58.942Z,81.73
2018-12-04T05:58:26.946Z,81.30
2018-12-04T06:00:54.945Z,81.09
2018-12-04T06:03:22.903Z,80.70
2018-12-04T06:05:50.887Z,80.30
2018-12-04T06:08:18.931Z,80.19
2018-12-04T06:10:46.893Z,80.72
2018-12-04T06:13:14.846Z,80.80
2018-12-04T06:15:43.094Z,80.84
2018-12-04T06:18:11.672Z,80.69
2018-12-04T06:20:39.867Z,80.73
2018-12-04T06:23:08.940Z,80.71
2018-12-04T06:25:37.379Z,80.13
2018-12-04T06:28:05.329Z,80.13
2018-12-04T06:30:33.323Z,79.90
2018-12-04T06:33:01.431Z,80.04
2018-12-04T06:35:29.400Z,80.48
2018-12-04T06:37:57.363Z,80.43
2018-12-04T06:40:25.350Z,81.04
2018-12-04T06:42:53.370Z,80.76
2018-12-04T06:45:21.407Z,80.41
2018-12-04T06:47:49.379Z,80.54
2018-12-04T06:50:17.342Z,80.60
2018-12-04T06:52:45.308Z,80.83
2018-12-04T06:55:13.336Z,81.38
2018-12-04T06:57:41.339Z,81.12
2018-12-04T07:00:09.374Z,80.94
2018-12-04T07:02:37.394Z,81.06
2018-12-04T07:05:05.530Z,80.90
2018-12-04T07:07:33.819Z,81.53
2018-12-04T07:10:01.838Z,81.31
2018-12-04T07:12:29.889Z,81.57
2018-12-04T07:14:57.846Z,81.35
2018-12-04T07:17:25.795Z,81.13
2018-12-04T07:19:53.862Z,81.02
2018-12-04T07:22:21.863Z,81.08
2018-12-04T07:24:49.834Z,80.52
2018-12-04T07:27:17.952Z,80.27
2018-12-04T07:29:45.959Z,80.66
2018-12-04T07:32:13.929Z,82.20
2018-12-04T07:34:42.090Z,81.06
2018-12-04T07:37:10.782Z,81.03
2018-12-04T07:39:38.781Z,80.96
2018-12-04T07:42:06.794Z,81.04
2018-12-04T07:44:34.961Z,80.77
2018-12-04T07:47:03.015Z,80.19
2018-12-04T07:49:30.971Z,80.20
2018-12-04T07:51:58.982Z,80.54
2018-12-04T07:54:27.074Z,80.15
2018-12-04T07:56:55.107Z,80.34
2018-12-04T07:59:23.253Z,79.83
2018-12-04T08:01:51.392Z,80.13
2018-12-04T08:04:19.571Z,80.03
2018-12-04T08:06:47.574Z,79.57
2018-12-04T08:09:15.603Z,79.49
2018-12-04T08:11:43.740Z,79.34
2018-12-04T08:14:11.718Z,79.47
2018-12-04T08:16:39.689Z,79.42
2018-12-04T08:19:07.682Z,79.25
2018-12-04T08:21:35.910Z,79.02
2018-12-04T08:24:03.976Z,78.95
2018-12-04T08:26:32.024Z,77.96
2018-12-04T08:29:00.137Z,78.00
2018-12-04T08:31:29.368Z,78.10
2018-12-04T08:33:57.314Z,77.83
2018-12-04T08:36:25.395Z,77.74
2018-12-04T08:38:53.395Z,76.99
2018-12-04T08:41:21.368Z,77.12
2018-12-04T08:43:49.447Z,77.17
2018-12-04T08:46:17.464Z,77.19
2018-12-04T08:48:45.442Z,76.84
2018-12-04T08:51:13.513Z,77.38
2018-12-04T08:53:43.100Z,77.15
2018-12-04T08:56:11.072Z,77.08
2018-12-04T08:58:39.155Z,76.58
2018-12-04T09:01:07.467Z,77.03
2018-12-04T09:03:35.479Z,75.93
2018-12-04T09:06:05.613Z,76.49
2018-12-04T09:08:33.678Z,77.26
2018-12-04T09:11:02.026Z,77.03
2018-12-04T09:13:30.026Z,77.28
2018-12-04T09:15:58.021Z,76.89
2018-12-04T09:18:26.017Z,76.54
2018-12-04T09:20:54.182Z,76.70
2018-12-04T09:23:22.179Z,76.69
2018-12-04T09:25:50.291Z,76.57
2018-12-04T09:28:18.290Z,76.54
2018-12-04T09:30:49.084Z,76.29
2018-12-04T09:33:17.328Z,76.16
2018-12-04T09:35:45.310Z,75.83
2018-12-04T09:38:13.447Z,75.97
2018-12-04T09:40:41.429Z,75.49
2018-12-04T09:43:09.448Z,74.68
2018-12-04T09:45:37.455Z,75.63
2018-12-04T09:48:05.588Z,75.30
2018-12-04T09:50:33.558Z,74.82
2018-12-04T09:53:01.590Z,74.59
2018-12-04T09:55:29.594Z,74.75
2018-12-04T09:57:57.588Z,74.23
2018-12-04T10:00:25.544Z,73.79
2018-12-04T10:02:53.578Z,73.55
2018-12-04T10:05:21.606Z,73.79
2018-12-04T10:07:49.622Z,73.65
2018-12-04T10:10:17.614Z,72.97
2018-12-04T10:12:45.620Z,73.17
2018-12-04T10:15:13.850Z,72.94
2018-12-04T10:17:41.798Z,73.43
2018-12-04T10:20:09.871Z,73.27
2018-12-04T10:22:37.882Z,73.83
2018-12-04T10:25:05.839Z,73.83
2018-12-04T10:27:33.780Z,73.82
2018-12-04T10:30:01.790Z,72.79
2018-12-04T10:32:29.745Z,73.14
2018-12-04T10:34:57.686Z,73.40
2018-12-04T10:37:25.678Z,73.33
2018-12-04T10:39:53.851Z,73.16
2018-12-04T10:42:21.915Z,72.78
2018-12-04T10:44:49.952Z,73.21
2018-12-04T10:47:17.910Z,71.92
2018-12-04T10:49:45.917Z,71.99
2018-12-04T10:52:13.883Z,71.70
2018-12-04T10:54:41.893Z,71.61
2018-12-04T10:57:10.138Z,71.75
2018-12-04T10:59:38.123Z,71.72
2018-12-04T11:02:11.691Z,72.27
2018-12-04T11:04:39.672Z,72.11
2018-12-04T11:07:07.670Z,73.24
2018-12-04T11:09:35.647Z,74.15
2018-12-04T11:12:03.680Z,74.22
2018-12-04T11:14:31.815Z,74.80
2018-12-04T11:16:59.795Z,75.59
2018-12-04T11:19:27.814Z,76.34
2018-12-04T11:21:55.818Z,75.52
2018-12-04T11:24:23.801Z,74.54
2018-12-04T11:26:52.109Z,74.49
2018-12-04T11:29:20.228Z,73.88
2018-12-04T11:31:48.451Z,74.27
2018-12-04T11:34:16.579Z,74.07
2018-12-04T11:36:44.506Z,74.07
2018-12-04T11:39:12.482Z,73.80
2018-12-04T11:41:40.462Z,74.20
2018-12-04T11:44:08.426Z,74.78
2018-12-04T11:46:36.453Z,74.46
2018-12-04T11:49:04.458Z,74.77
2018-12-04T11:51:32.407Z,74.88
2018-12-04T11:54:00.430Z,74.68
2018-12-04T11:56:28.398Z,74.54
2018-12-04T11:58:57.458Z,74.54
2018-12-04T12:01:27.575Z,74.18
2018-12-04T12:03:55.590Z,73.47
2018-12-04T12:06:23.623Z,72.28
2018-12-04T12:08:52.557Z,72.79
2018-12-04T12:11:20.493Z,71.64
2018-12-04T12:13:48.604Z,70.68
2018-12-04T12:16:17.797Z,71.12
2018-12-04T12:18:46.253Z,70.65
2018-12-04T12:21:14.250Z,70.07
2018-12-04T12:23:43.019Z,70.18
2018-12-04T12:26:11.006Z,70.32
2018-12-04T12:28:38.943Z,70.12
2018-12-04T12:31:06.898Z,69.66
2018-12-04T12:33:35.448Z,70.23
2018-12-04T12:36:03.700Z,69.91
2018-12-04T12:38:31.742Z,69.97
2018-12-04T12:40:59.712Z,69.69
2018-12-04T12:43:29.024Z,69.94
2018-12-04T12:45:58.880Z,69.80
2018-12-04T12:48:27.693Z,69.54
2018-12-04T12:50:55.828Z,69.73
2018-12-04T12:53:26.394Z,69.08
2018-12-04T12:55:55.790Z,68.01
2018-12-04T12:58:24.314Z,68.12
2018-12-04T13:00:53.783Z,68.34
2018-12-04T13:03:22.582Z,68.09
2018-12-04T13:05:51.201Z,68.75
2018-12-04T13:08:20.976Z,68.44
2018-12-04T13:10:49.875Z,68.12
2018-12-04T13:13:19.776Z,68.73
2018-12-04T13:15:48.469Z,68.18
2018-12-04T13:18:16.971Z,68.20
2018-12-04T13:20:46.744Z,67.83
2018-12-04T13:23:16.063Z,68.15
2018-12-04T13:25:45.556Z,68.15
2018-12-04T13:28:13.948Z,68.24
2018-12-04T13:30:42.513Z,68.79
2018-12-04T13:33:13.044Z,68.48
2018-12-04T13:35:42.633Z,68.31
2018-12-04T13:38:11.664Z,68.25
2018-12-04T13:40:41.331Z,68.63
2018-12-04T13:43:09.465Z,68.25
2018-12-04T13:45:38.473Z,68.59
2018-12-04T13:48:07.366Z,68.62
2018-12-04T13:50:35.522Z,68.91
2018-12-04T13:53:04.900Z,69.00
2018-12-04T13:55:33.330Z,69.16
2018-12-04T13:58:01.509Z,68.50
2018-12-04T14:00:31.351Z,68.98
2018-12-04T14:02:59.770Z,68.72
2018-12-04T14:05:27.956Z,68.23
2018-12-04T14:07:55.971Z,68.18
2018-12-04T14:10:23.957Z,70.92
2018-12-04T14:12:52.199Z,68.12
2018-12-04T14:15:20.629Z,68.35
2018-12-04T14:17:49.446Z,68.08
2018-12-04T14:20:17.906Z,67.49
2018-12-04T14:22:45.959Z,67.52
2018-12-04T14:25:14.898Z,67.80
2018-12-04T14:27:42.943Z,67.21
2018-12-04T14:30:11.369Z,67.85
2018-12-04T14:32:39.591Z,66.68
2018-12-04T14:35:07.648Z,66.93
2018-12-04T14:37:35.604Z,66.57
2018-12-04T14:40:04.190Z,66.17
2018-12-04T14:42:32.172Z,66.67
2018-12-04T14:45:00.528Z,66.68
2018-12-04T14:47:29.415Z,66.34
2018-12-04T14:49:57.403Z,66.82
2018-12-04T14:52:25.553Z,66.38
2018-12-04T14:54:53.571Z,66.76
2018-12-04T14:57:21.560Z,66.56
2018-12-04T14:59:49.672Z,66.99
2018-12-04T15:02:17.690Z,67.18
2018-12-04T15:04:46.883Z,67.17
2018-12-04T15:07:15.170Z,68.19
2018-12-04T15:09:43.455Z,68.73
2018-12-04T15:12:11.558Z,69.42
2018-12-04T15:14:39.586Z,70.08
2018-12-04T15:17:07.591Z,70.28
2018-12-04T15:19:35.871Z,69.62
2018-12-04T15:22:03.969Z,70.59
2018-12-04T15:24:31.993Z,70.93
2018-12-04T15:27:00.116Z,71.76
2018-12-04T15:29:28.144Z,71.65
2018-12-04T15:31:56.273Z,72.22
2018-12-04T15:34:24.273Z,72.34
2018-12-04T15:36:56.470Z,72.76
2018-12-04T15:39:23.087Z,73.30
2018-12-04T15:41:51.293Z,73.14
2018-12-04T15:44:19.411Z,73.18
2018-12-04T15:46:47.474Z,72.98
2018-12-04T15:49:15.453Z,72.25
2018-12-04T15:51:44.897Z,72.22
2018-12-04T15:54:12.954Z,72.11
2018-12-04T15:56:40.918Z,72.25
2018-12-04T15:59:09.595Z,72.22
2018-12-04T16:01:38.230Z,71.63
2018-12-04T16:04:06.196Z,71.82
2018-12-04T16:06:35.492Z,71.90
2018-12-04T16:09:06.330Z,72.43
2018-12-04T16:11:34.377Z,72.66
2018-12-04T16:14:03.394Z,72.99
2018-12-04T16:16:31.542Z,73.27
2018-12-04T16:18:59.534Z,73.46
2018-12-04T16:21:27.503Z,73.41
2018-12-04T16:23:55.598Z,73.27
2018-12-04T16:26:23.634Z,73.17
2018-12-04T16:28:51.579Z,72.79
2018-12-04T16:31:19.545Z,72.37
2018-12-04T16:33:47.540Z,72.28
2018-12-04T16:36:15.640Z,71.18
2018-12-04T16:38:43.754Z,70.92
2018-12-04T16:41:11.756Z,70.89
2018-12-04T16:43:39.825Z,70.50
2018-12-04T16:46:07.922Z,70.31
2018-12-04T16:48:36.758Z,71.97
2018-12-04T16:51:04.713Z,73.94
2018-12-04T16:53:32.940Z,74.86
2018-12-04T16:56:01.106Z,74.54
2018-12-04T16:58:29.139Z,74.15
2018-12-04T17:00:57.184Z,74.46
2018-12-04T17:03:27.369Z,74.36
2018-12-04T17:05:55.565Z,74.01
2018-12-04T17:08:24.521Z,74.77
2018-12-04T17:10:52.471Z,75.38
2018-12-04T17:13:20.474Z,75.51
2018-12-04T17:15:48.746Z,75.58
2018-12-04T17:18:16.819Z,75.26
2018-12-04T17:20:45.339Z,74.70
2018-12-04T17:23:13.322Z,74.05
2018-12-04T17:25:41.386Z,74.44
2018-12-04T17:28:09.346Z,74.10
2018-12-04T17:30:37.311Z,74.17
2018-12-04T17:33:05.284Z,74.55
2018-12-04T17:35:33.329Z,73.85
2018-12-04T17:38:01.346Z,73.65
2018-12-04T17:40:29.727Z,73.70
2018-12-04T17:42:57.715Z,73.30
2018-12-04T17:45:25.668Z,73.39
2018-12-04T17:47:54.591Z,73.54
2018-12-04T17:50:22.553Z,73.62
2018-12-04T17:52:50.884Z,73.37
2018-12-04T17:55:18.910Z,73.96
2018-12-04T17:57:46.867Z,73.84
2018-12-04T18:00:15.659Z,74.03
2018-12-04T18:02:43.813Z,73.62
2018-12-04T18:05:12.473Z,73.52
2018-12-04T18:07:41.771Z,73.88
2018-12-04T18:10:09.798Z,73.53
2018-12-04T18:12:37.770Z,73.25
2018-12-04T18:15:06.827Z,73.24
2018-12-04T18:17:34.855Z,72.65
2018-12-04T18:20:03.325Z,72.56
2018-12-04T18:22:31.894Z,72.65
2018-12-04T18:25:00.709Z,72.69
2018-12-04T18:27:28.691Z,72.43
2018-12-04T18:29:56.736Z,72.42
2018-12-04T18:32:25.554Z,72.39
2018-12-04T18:34:53.679Z,73.04
2018-12-04T18:37:21.726Z,73.15
2018-12-04T18:39:49.848Z,73.06
2018-12-04T18:42:17.819Z,73.14
2018-12-04T18:44:46.829Z,73.27
2018-12-04T18:47:15.426Z,73.01
2018-12-04T18:49:43.606Z,73.44
2018-12-04T18:52:11.634Z,73.64
2018-12-04T18:54:40.438Z,74.33
2018-12-04T18:57:08.539Z,73.60
2018-12-04T18:59:36.622Z,73.77
2018-12-04T19:02:04.848Z,73.30
2018-12-04T19:04:32.811Z,74.01
2018-12-04T19:07:00.903Z,73.91
2018-12-04T19:09:28.858Z,73.61
2018-12-04T19:11:56.880Z,73.96
2018-12-04T19:14:24.845Z,73.43
2018-12-04T19:16:54.455Z,74.06
2018-12-04T19:19:22.669Z,73.85
2018-12-04T19:21:50.797Z,74.02
2018-12-04T19:24:18.742Z,74.01
2018-12-04T19:26:46.733Z,74.14
2018-12-04T19:29:15.001Z,74.38
2018-12-04T19:31:43.330Z,76.53
2018-12-04T19:34:11.345Z,74.47
2018-12-04T19:36:39.459Z,74.01
2018-12-04T19:39:07.849Z,74.52
2018-12-04T19:41:36.725Z,74.45
2018-12-04T19:44:04.946Z,74.77
2018-12-04T19:46:34.386Z,74.64
2018-12-04T19:49:02.591Z,74.59
2018-12-04T19:51:31.153Z,74.68
2018-12-04T19:53:59.308Z,73.90
2018-12-04T19:56:27.358Z,74.20
2018-12-04T19:58:55.730Z,74.88
2018-12-04T20:01:23.978Z,75.04
2018-12-04T20:03:52.133Z,75.43
2018-12-04T20:06:20.056Z,75.62
2018-12-04T20:08:53.204Z,75.77
2018-12-04T20:11:21.480Z,76.36
2018-12-04T20:13:49.435Z,76.12
2018-12-04T20:16:18.600Z,76.34
2018-12-04T20:18:47.127Z,75.96
2018-12-04T20:21:15.273Z,76.39
2018-12-04T20:23:43.249Z,76.95
2018-12-04T20:26:11.366Z,76.82
2018-12-04T20:28:39.640Z,76.46
2018-12-04T20:31:07.643Z,76.37
2018-12-04T20:33:35.634Z,76.48
2018-12-04T20:36:03.674Z,76.92
2018-12-04T20:38:31.644Z,77.00
2018-12-04T20:40:59.864Z,76.81
2018-12-04T20:43:27.993Z,77.07
2018-12-04T20:45:56.913Z,77.36
2018-12-04T20:48:24.923Z,77.05
2018-12-04T20:50:52.929Z,77.07
2018-12-04T20:53:20.885Z,77.23
2018-12-04T20:55:48.902Z,77.71
2018-12-04T20:58:17.022Z,77.62
2018-12-04T21:00:45.057Z,78.04
2018-12-04T21:03:13.014Z,77.89
2018-12-04T21:05:41.012Z,78.38
2018-12-04T21:08:09.019Z,78.21
2018-12-04T21:10:37.446Z,84.05
2018-12-04T21:13:05.442Z,78.32
2018-12-04T21:15:33.532Z,78.59
2018-12-04T21:18:01.600Z,78.33
2018-12-04T21:20:29.591Z,78.82
2018-12-04T21:22:58.341Z,79.16
2018-12-04T21:25:27.176Z,79.31
2018-12-04T21:28:00.888Z,79.34
2018-12-04T21:33:35.803Z,79.80
2018-12-04T21:36:09.479Z,80.27
2018-12-04T21:38:43.155Z,79.92
2018-12-04T21:41:13.178Z,80.07
2018-12-04T21:43:46.850Z,80.09
2018-12-04T21:46:20.543Z,80.24
2018-12-04T21:48:49.035Z,80.24
2018-12-04T21:51:17.150Z,80.38
2018-12-04T21:53:46.224Z,80.38
2018-12-04T21:56:15.108Z,80.84
2018-12-04T21:58:43.235Z,79.55
2018-12-04T22:01:11.739Z,79.77
2018-12-04T22:03:39.898Z,79.62
2018-12-04T22:06:07.902Z,80.05
2018-12-04T22:08:36.301Z,80.46
2018-12-04T22:11:04.298Z,80.36
2018-12-04T22:13:32.326Z,80.22
2018-12-04T22:16:00.282Z,80.50
2018-12-04T22:18:28.317Z,80.47
2018-12-04T22:20:56.639Z,80.61
2018-12-04T22:23:24.600Z,80.37
2018-12-04T22:25:52.706Z,80.48
2018-12-04T22:28:20.993Z,80.06
2018-12-04T22:30:49.091Z,80.14
2018-12-04T22:33:17.136Z,80.82
2018-12-04T22:35:45.872Z,81.08
2018-12-04T22:38:13.839Z,80.75
2018-12-04T22:40:41.910Z,81.00
2018-12-04T22:43:09.874Z,81.27
2018-12-04T22:45:38.142Z,81.43
2018-12-04T22:48:06.183Z,81.33
2018-12-04T22:50:34.843Z,81.66
2018-12-04T22:53:02.894Z,81.35
2018-12-04T22:55:30.855Z,81.42
2018-12-04T22:57:58.971Z,81.79
2018-12-04T23:00:30.612Z,81.63
2018-12-04T23:02:59.168Z,81.86
2018-12-04T23:05:27.496Z,81.86
2018-12-04T23:07:55.507Z,81.81
2018-12-04T23:10:24.406Z,81.86
2018-12-04T23:12:52.404Z,81.88
2018-12-04T23:15:21.673Z,82.07
2018-12-04T23:17:49.856Z,82.26
2018-12-04T23:20:17.828Z,82.31
2018-12-04T23:22:45.775Z,82.62
2018-12-04T23:25:13.925Z,82.84
2018-12-04T23:27:42.335Z,83.01
2018-12-04T23:30:10.327Z,83.16
2018-12-04T23:32:38.301Z,83.14
2018-12-04T23:35:06.585Z,83.09
2018-12-04T23:37:34.555Z,83.40
2018-12-04T23:40:02.670Z,83.86
2018-12-04T23:42:30.746Z,84.34
2018-12-04T23:44:58.710Z,84.11
2018-12-04T23:47:26.856Z,83.08
2018-12-04T23:49:54.870Z,83.45
2018-12-04T23:52:35.152Z,83.63
2018-12-04T23:57:49.355Z,83.57
